Indianapolis, IN (46221)

5:14 PM EST on February 01, 2015 (GMT -0500)
i-465 and MANN RD | Change Station
CLOSE
Current Station
Personal Weather Station
Location: Indianapolis, IN
Elevation: 670 ft
Nearby Weather Stations

Elev 670 ft 39.69 °N, 86.23 °W | Updated 6 seconds ago

Rain
Rain
36.1 °F
Feels Like 36 °F
N
0.0
Wind Variable Wind from SE
Gusts 0.0 mph

Today
High -- | Low -- °F
--% Chance of Precip.
Yesterday
High -- | Low -- °F
Precip. -- in
7:53 AM 6:04 PM
Waxing Gibbous, 96% visible
Pressure 29.59 in
Visibility 1.2 miles
Clouds Overcast 300 ft
Windchill 36 °F
Dew Point 34 °F
Humidity 91%
Rainfall 0.33 in
Snow Depth Not available.
UV 0 out of 12
Pollen .10 out of 12
Air Quality Not available.
Flu Activity Not available.
METAR KIND 012054Z 11004KT 1 1/4SM R05L/5500V6000FT -RA BR OVC003 00/00 A2959

More Conditions Fewer Conditions

Pressure 29.59 in
Visibility 1.2 miles
Clouds Overcast 300 ft
Windchill 36 °F
Dew Point 34 °F
Humidity 91%
Rainfall 0.33 in
Snow Depth Not available.
UV 0 out of 12
Pollen .10 out of 12
Air Quality Not available.
Flu Activity Not available.
METAR KIND 012054Z 11004KT 1 1/4SM R05L/5500V6000FT -RA BR OVC003 00/00 A2959

More Conditions Fewer Conditions

10-Day Weather Forecast

Almanac

Astronomy

Feb. 01, 2015 Rise Set
Actual Time
Civil Twilight
Nautical Twilight
Astronomical Twilight
Moon
Length of Visible Light
Length of Day
Tomorrow will be .
, % of the Moon is Illuminated

Today's Extremes

State Highs State Lows

Community

WunderPhotos

Upload Photos

1,792,563 photos uploaded!

WunderBlogs® & News

Nearby

Air Quality

  Air Quality AQ Index Pollutant
Not available.

Snow Depth

Station Depth Elevation

Earthquake Activity

City Distance Mag. Time & Date
Minimum magnitude displayed is 2.5.

Coastal Water Temperatures

Place Temperature

Nearby Weather Stations